Terminal Aerodrome Forecast
Issued by NWS

Home | Current Version | Previous Version | Text Only | Print | Product List | Glossary On
Versions: 1 2 3 4 5 6 7 8 9 10 11 12 13 14 15
000
FTUS46 KLOX 251140
TAFSBP
TAF
KSBP 251140Z 2512/2612 31010KT P6SM SCT200
     FM251500 32015KT P6SM BKN020 BKN200
     FM251900 32025G35KT P6SM SCT030 BKN200
     FM260300 32015G22KT P6SM SCT200
     FM260600 31010KT P6SM BKN200
     FM261000 34012KT P6SM BKN030 BKN200=

USA.gov is the U.S. government's official web portal to all federal, state and local government web resources and services.